createdAt,value
2017-12-22T00:02:24.698Z,27.73
2017-12-22T00:04:53.137Z,41.17
2017-12-22T00:07:22.772Z,113.37
2017-12-22T00:09:51.797Z,116.30
2017-12-22T00:12:20.142Z,53.97
2017-12-22T00:14:48.555Z,50.90
2017-12-22T00:17:17.208Z,43.57
2017-12-22T00:19:45.829Z,53.73
2017-12-22T00:22:14.848Z,40.90
2017-12-22T00:24:43.997Z,39.47
2017-12-22T00:27:12.800Z,38.67
2017-12-22T00:29:42.152Z,48.00
2017-12-22T00:32:10.533Z,40.17
2017-12-22T00:34:39.681Z,50.20
2017-12-22T00:37:08.595Z,48.00
2017-12-22T00:39:36.974Z,49.30
2017-12-22T00:42:05.877Z,42.13
2017-12-22T00:44:34.281Z,45.13
2017-12-22T00:47:02.713Z,40.63
2017-12-22T00:49:31.801Z,44.60
2017-12-22T00:52:00.737Z,45.00
2017-12-22T00:54:29.132Z,42.90
2017-12-22T00:56:57.496Z,31.40
2017-12-22T00:59:25.848Z,41.00
2017-12-22T01:01:54.932Z,29.90
2017-12-22T01:04:23.529Z,29.23
2017-12-22T01:06:52.724Z,28.60
2017-12-22T01:09:22.308Z,32.73
2017-12-22T01:11:50.632Z,30.30
2017-12-22T01:14:19.616Z,27.83
2017-12-22T01:30:13.496Z,32.80
2017-12-22T01:32:42.097Z,35.27
2017-12-22T01:35:11.481Z,36.63
2017-12-22T01:37:41.443Z,33.27
2017-12-22T01:40:09.797Z,27.23
2017-12-22T01:42:38.767Z,36.43
2017-12-22T01:45:07.225Z,39.23
2017-12-22T01:47:36.132Z,41.50
2017-12-22T01:50:04.748Z,43.13
2017-12-22T01:52:33.672Z,38.03
2017-12-22T01:55:02.767Z,39.57
2017-12-22T01:57:31.771Z,48.40
2017-12-22T02:00:00.836Z,42.70
2017-12-22T02:02:29.149Z,54.50
2017-12-22T02:04:58.237Z,46.20
2017-12-22T02:07:27.400Z,39.87
2017-12-22T02:09:56.365Z,46.90
2017-12-22T02:12:25.453Z,39.30
2017-12-22T02:14:53.964Z,37.23
2017-12-22T02:17:22.996Z,40.27
2017-12-22T02:19:52.084Z,31.83
2017-12-22T02:22:20.400Z,32.57
2017-12-22T02:24:48.720Z,28.30
2017-12-22T02:27:17.594Z,33.50
2017-12-22T02:29:46.321Z,38.47
2017-12-22T02:32:15.116Z,42.23
2017-12-22T02:34:44.099Z,37.47
2017-12-22T02:37:12.813Z,39.77
2017-12-22T02:39:42.409Z,29.40
2017-12-22T02:42:11.750Z,31.10
2017-12-22T02:44:40.442Z,32.00
2017-12-22T02:47:09.113Z,56.70
2017-12-22T02:49:37.501Z,39.23
2017-12-22T02:52:06.315Z,33.70
2017-12-22T02:54:34.772Z,31.57
2017-12-22T02:57:03.916Z,32.37
2017-12-22T02:59:33.027Z,31.97
2017-12-22T03:02:02.093Z,33.47
2017-12-22T03:04:31.193Z,35.53
2017-12-22T03:07:00.284Z,28.70
2017-12-22T03:09:29.524Z,35.00
2017-12-22T03:11:58.645Z,31.53
2017-12-22T03:14:27.523Z,23.80
2017-12-22T03:16:56.691Z,30.00
2017-12-22T03:19:25.853Z,28.53
2017-12-22T03:21:54.809Z,30.07
2017-12-22T03:24:23.908Z,25.93
2017-12-22T03:26:52.293Z,23.87
2017-12-22T03:29:20.891Z,23.63
2017-12-22T03:31:50.391Z,20.17
2017-12-22T03:34:18.784Z,20.70
2017-12-22T03:36:47.971Z,18.43
2017-12-22T03:39:17.076Z,15.10
2017-12-22T03:41:45.506Z,18.40
2017-12-22T03:44:14.487Z,19.53
2017-12-22T03:46:43.484Z,19.57
2017-12-22T03:49:11.853Z,19.90
2017-12-22T03:51:40.903Z,17.27
2017-12-22T03:54:09.216Z,17.93
2017-12-22T03:56:38.412Z,16.90
2017-12-22T03:59:07.520Z,13.80
2017-12-22T04:01:36.444Z,18.50
2017-12-22T04:04:05.599Z,14.03
2017-12-22T04:06:33.907Z,13.97
2017-12-22T04:09:03.751Z,16.60
2017-12-22T04:11:32.231Z,16.97
2017-12-22T04:14:00.717Z,16.57
2017-12-22T04:16:29.035Z,17.00
2017-12-22T04:18:57.703Z,23.67
2017-12-22T04:21:26.750Z,26.20
2017-12-22T04:23:55.915Z,25.87
2017-12-22T04:26:25.103Z,21.57
2017-12-22T04:28:54.053Z,23.63
2017-12-22T04:31:22.460Z,24.53
2017-12-22T04:33:51.571Z,24.33
2017-12-22T04:36:20.551Z,26.20
2017-12-22T04:38:48.872Z,24.67
2017-12-22T04:41:17.282Z,26.53
2017-12-22T04:43:46.214Z,26.23
2017-12-22T04:46:15.247Z,27.43
2017-12-22T04:48:43.622Z,27.50
2017-12-22T04:51:12.637Z,25.73
2017-12-22T04:53:41.027Z,25.27
2017-12-22T04:56:10.063Z,29.60
2017-12-22T04:58:38.706Z,29.30
2017-12-22T05:01:07.368Z,25.63
2017-12-22T05:03:35.855Z,26.80
2017-12-22T05:06:04.264Z,26.70
2017-12-22T05:08:33.896Z,31.87
2017-12-22T05:11:03.965Z,24.07
2017-12-22T05:13:32.283Z,27.63
2017-12-22T05:16:01.133Z,22.87
2017-12-22T05:18:30.315Z,24.87
2017-12-22T05:20:59.315Z,30.63
2017-12-22T05:23:27.639Z,32.83
2017-12-22T05:25:57.567Z,31.40
2017-12-22T05:28:26.599Z,30.03
2017-12-22T05:30:55.696Z,24.30
2017-12-22T05:33:24.851Z,33.33
2017-12-22T05:35:53.887Z,30.93
2017-12-22T05:38:22.200Z,24.37
2017-12-22T05:40:51.166Z,26.03
2017-12-22T05:43:19.546Z,31.73
2017-12-22T05:45:48.847Z,27.60
2017-12-22T05:48:17.864Z,34.23
2017-12-22T05:50:46.836Z,26.77
2017-12-22T05:53:15.148Z,28.13
2017-12-22T05:55:44.113Z,21.40
2017-12-22T05:58:12.469Z,30.33
2017-12-22T06:00:40.784Z,25.70
2017-12-22T06:03:09.540Z,24.40
2017-12-22T06:05:38.124Z,46.40
2017-12-22T06:08:06.448Z,190.27
2017-12-22T06:10:34.859Z,48.57
2017-12-22T06:13:03.856Z,110.67
2017-12-22T06:15:32.935Z,37.77
2017-12-22T06:18:02.034Z,54.23
2017-12-22T06:20:30.428Z,41.17
2017-12-22T06:22:59.358Z,56.37
2017-12-22T06:25:28.080Z,44.70
2017-12-22T06:27:57.544Z,164.47
2017-12-22T06:30:26.671Z,42.57
2017-12-22T06:32:56.008Z,33.83
2017-12-22T06:35:24.424Z,30.37
2017-12-22T06:37:53.120Z,24.03
2017-12-22T06:40:21.526Z,24.63
2017-12-22T06:42:51.481Z,21.93
2017-12-22T06:45:20.424Z,155.97
2017-12-22T06:47:49.878Z,173.27
2017-12-22T06:50:18.571Z,221.47
2017-12-22T06:52:46.879Z,104.87
2017-12-22T06:55:15.248Z,36.80
2017-12-22T06:57:44.152Z,57.43
2017-12-22T07:00:12.500Z,28.40
2017-12-22T07:02:42.307Z,41.70
2017-12-22T07:05:11.532Z,35.17
2017-12-22T07:07:39.947Z,28.23
2017-12-22T07:10:09.047Z,23.87
2017-12-22T07:12:37.852Z,21.47
2017-12-22T07:15:06.292Z,20.93
2017-12-22T07:17:35.405Z,21.80
2017-12-22T07:20:03.703Z,18.33
2017-12-22T07:22:32.288Z,20.50
2017-12-22T07:25:01.367Z,17.63
2017-12-22T07:27:29.867Z,22.27
2017-12-22T07:29:59.393Z,21.50
2017-12-22T07:32:27.840Z,19.50
2017-12-22T07:34:56.788Z,15.27
2017-12-22T07:37:25.859Z,21.40
2017-12-22T07:39:54.269Z,21.23
2017-12-22T07:42:23.224Z,17.03
2017-12-22T07:44:51.600Z,17.23
2017-12-22T07:47:20.693Z,13.70
2017-12-22T07:49:49.191Z,16.70
2017-12-22T07:52:18.831Z,15.90
2017-12-22T07:54:47.137Z,20.20
2017-12-22T07:57:16.173Z,10.67
2017-12-22T07:59:44.614Z,10.60
2017-12-22T08:02:13.340Z,23.20
2017-12-22T08:04:41.809Z,11.30
2017-12-22T08:07:10.169Z,13.57
2017-12-22T08:09:39.264Z,12.83
2017-12-22T08:12:08.428Z,15.27
2017-12-22T08:14:38.463Z,15.30
2017-12-22T08:17:07.358Z,14.07
2017-12-22T08:19:35.916Z,20.40
2017-12-22T08:22:04.282Z,13.10
2017-12-22T08:24:33.932Z,12.87
2017-12-22T08:27:03.082Z,11.27
2017-12-22T08:29:32.028Z,11.33
2017-12-22T08:32:01.096Z,15.77
2017-12-22T08:34:30.317Z,19.13
2017-12-22T08:36:59.247Z,19.77
2017-12-22T08:39:27.636Z,20.37
2017-12-22T08:41:56.650Z,20.93
2017-12-22T08:44:24.968Z,24.37
2017-12-22T08:46:54.059Z,22.27
2017-12-22T08:49:23.276Z,24.10
2017-12-22T08:51:51.944Z,24.17
2017-12-22T08:54:21.340Z,21.73
2017-12-22T08:56:50.542Z,19.47
2017-12-22T08:59:19.336Z,17.50
2017-12-22T09:01:47.800Z,20.17
2017-12-22T09:04:16.844Z,22.30
2017-12-22T09:06:45.158Z,16.53
2017-12-22T09:09:13.531Z,24.83
2017-12-22T09:11:42.523Z,22.20
2017-12-22T09:14:10.924Z,18.40
2017-12-22T09:16:39.918Z,15.07
2017-12-22T09:19:09.146Z,19.67
2017-12-22T09:21:37.843Z,22.57
2017-12-22T09:24:06.363Z,16.80
2017-12-22T09:26:35.411Z,15.27
2017-12-22T09:29:04.663Z,15.33
2017-12-22T09:31:33.204Z,18.07
2017-12-22T09:34:02.060Z,16.90
2017-12-22T09:36:31.152Z,16.07
2017-12-22T09:38:59.820Z,18.20
2017-12-22T09:41:28.407Z,15.53
2017-12-22T09:43:56.772Z,17.90
2017-12-22T09:46:25.760Z,17.70
2017-12-22T09:48:54.157Z,9.63
2017-12-22T09:51:22.653Z,12.53
2017-12-22T09:53:51.575Z,11.33
2017-12-22T09:56:24.229Z,11.07
2017-12-22T09:58:53.263Z,17.00
2017-12-22T10:01:21.600Z,16.73
2017-12-22T10:03:50.260Z,20.50
2017-12-22T10:06:18.913Z,19.63
2017-12-22T10:08:47.224Z,17.67
2017-12-22T10:11:15.760Z,18.73
2017-12-22T10:13:44.653Z,20.40
2017-12-22T10:16:13.556Z,19.40
2017-12-22T10:18:42.087Z,20.23
2017-12-22T10:21:10.988Z,24.93
2017-12-22T10:23:40.333Z,19.63
2017-12-22T10:26:08.740Z,23.40
2017-12-22T10:28:37.737Z,18.80
2017-12-22T10:31:06.860Z,20.83
2017-12-22T10:33:36.054Z,19.77
2017-12-22T10:36:05.144Z,14.43
2017-12-22T10:38:34.080Z,13.43
2017-12-22T10:41:02.538Z,15.03
2017-12-22T10:43:31.457Z,13.40
2017-12-22T10:46:00.586Z,13.83
2017-12-22T10:48:28.891Z,9.07
2017-12-22T10:50:58.086Z,8.40
2017-12-22T10:53:27.100Z,7.00
2017-12-22T10:55:56.285Z,7.30
2017-12-22T10:58:25.067Z,9.23
2017-12-22T11:00:53.529Z,7.63
2017-12-22T11:03:21.936Z,8.30
2017-12-22T11:05:50.343Z,9.73
2017-12-22T11:08:19.633Z,8.10
2017-12-22T11:10:48.233Z,8.20
2017-12-22T11:13:16.536Z,9.10
2017-12-22T11:15:45.032Z,9.10
2017-12-22T11:18:13.356Z,9.77
2017-12-22T11:20:42.532Z,9.77
2017-12-22T11:23:11.366Z,7.90
2017-12-22T11:25:39.719Z,7.97
2017-12-22T11:28:08.032Z,7.77
2017-12-22T11:30:37.144Z,8.03
2017-12-22T11:33:06.200Z,9.30
2017-12-22T11:35:35.354Z,6.70
2017-12-22T11:38:04.660Z,7.53
2017-12-22T11:40:33.705Z,11.40
2017-12-22T11:43:02.652Z,7.57
2017-12-22T11:45:31.961Z,8.00
2017-12-22T11:48:01.124Z,9.87
2017-12-22T11:50:29.784Z,7.40
2017-12-22T11:52:58.160Z,7.90
2017-12-22T11:55:26.507Z,9.03
2017-12-22T11:57:56.231Z,8.80
2017-12-22T12:00:25.880Z,7.97
2017-12-22T12:02:55.103Z,6.67
2017-12-22T12:05:24.028Z,15.53
2017-12-22T12:07:52.347Z,10.17
2017-12-22T12:10:21.565Z,9.70
2017-12-22T12:12:50.556Z,9.27
2017-12-22T12:15:19.816Z,9.43
2017-12-22T12:17:48.276Z,13.30
2017-12-22T12:20:18.205Z,12.83
2017-12-22T12:22:46.948Z,15.40
2017-12-22T12:25:16.018Z,17.43
2017-12-22T12:27:44.765Z,20.33
2017-12-22T12:30:14.371Z,18.63
2017-12-22T12:32:43.424Z,19.73
2017-12-22T12:35:11.740Z,18.23
2017-12-22T12:37:40.111Z,13.70
2017-12-22T12:40:08.908Z,15.70
2017-12-22T12:42:37.233Z,16.17
2017-12-22T12:45:05.589Z,21.17
2017-12-22T12:47:34.496Z,15.67
2017-12-22T12:50:02.883Z,16.17
2017-12-22T12:52:31.344Z,18.17
2017-12-22T12:55:00.278Z,19.37
2017-12-22T12:57:29.307Z,15.30
2017-12-22T12:59:58.579Z,16.27
2017-12-22T13:02:27.431Z,16.57
2017-12-22T13:04:56.751Z,12.87
2017-12-22T13:07:25.855Z,15.50
2017-12-22T13:09:54.772Z,11.47
2017-12-22T13:12:23.102Z,15.37
2017-12-22T13:14:52.374Z,14.10
2017-12-22T13:17:20.968Z,15.70
2017-12-22T13:19:49.548Z,16.03
2017-12-22T13:22:18.796Z,20.50
2017-12-22T13:24:47.241Z,11.30
2017-12-22T13:27:16.058Z,13.83
2017-12-22T13:29:44.978Z,17.03
2017-12-22T13:32:13.386Z,15.40
2017-12-22T13:34:41.702Z,14.27
2017-12-22T13:37:10.616Z,16.93
2017-12-22T13:39:39.686Z,15.13
2017-12-22T13:42:08.017Z,13.93
2017-12-22T13:44:36.389Z,13.70
2017-12-22T13:47:04.704Z,24.87
2017-12-22T13:49:33.020Z,16.73
2017-12-22T13:52:02.172Z,13.53
2017-12-22T13:54:30.528Z,24.57
2017-12-22T13:56:59.588Z,12.33
2017-12-22T13:59:28.684Z,12.40
2017-12-22T14:01:57.269Z,14.73
2017-12-22T14:04:26.705Z,14.73
2017-12-22T14:06:55.848Z,13.87
2017-12-22T14:09:24.837Z,21.60
2017-12-22T14:11:53.776Z,24.90
2017-12-22T14:14:22.441Z,26.43
2017-12-22T14:16:51.196Z,21.57
2017-12-22T14:19:19.832Z,26.97
2017-12-22T14:21:48.182Z,24.50
2017-12-22T14:24:16.489Z,22.73
2017-12-22T14:26:45.180Z,27.83
2017-12-22T14:29:13.488Z,16.30
2017-12-22T14:31:42.013Z,15.93
2017-12-22T14:34:10.559Z,14.90
2017-12-22T14:36:38.876Z,16.80
2017-12-22T14:39:08.053Z,21.97
2017-12-22T14:41:36.396Z,21.47
2017-12-22T14:44:05.724Z,26.03
2017-12-22T14:46:34.824Z,23.90
2017-12-22T14:49:04.031Z,77.50
2017-12-22T14:51:32.348Z,387.67
2017-12-22T14:54:00.670Z,211.37
2017-12-22T14:56:30.513Z,173.30
2017-12-22T14:58:58.859Z,33.33
2017-12-22T15:01:27.752Z,27.37
2017-12-22T15:03:56.745Z,42.20
2017-12-22T15:06:25.175Z,57.90
2017-12-22T15:08:54.292Z,47.73
2017-12-22T15:11:23.289Z,37.80
2017-12-22T15:13:52.413Z,30.70
2017-12-22T15:16:20.804Z,32.80
2017-12-22T15:18:49.120Z,27.97
2017-12-22T15:21:17.581Z,34.00
2017-12-22T15:23:47.280Z,32.53
2017-12-22T15:26:15.700Z,34.60
2017-12-22T15:28:44.517Z,28.97
2017-12-22T15:31:14.364Z,24.77
2017-12-22T15:33:42.668Z,27.80
2017-12-22T15:36:10.394Z,29.50
2017-12-22T15:38:38.947Z,25.77
2017-12-22T15:41:07.260Z,22.47
2017-12-22T15:43:38.114Z,27.33
2017-12-22T15:46:06.725Z,24.23
2017-12-22T15:48:35.038Z,38.13
2017-12-22T15:51:03.736Z,47.67
2017-12-22T15:53:33.910Z,32.83
2017-12-22T15:56:03.602Z,50.73
2017-12-22T15:58:33.042Z,30.50
2017-12-22T16:01:01.888Z,33.00
2017-12-22T16:03:31.096Z,31.77
2017-12-22T16:06:00.491Z,71.57
2017-12-22T16:08:28.808Z,35.00
2017-12-22T16:10:57.643Z,24.90
2017-12-22T16:13:25.952Z,18.43
2017-12-22T16:15:54.416Z,13.13
2017-12-22T16:18:23.225Z,19.73
2017-12-22T16:20:51.540Z,15.70
2017-12-22T16:23:19.991Z,15.53
2017-12-22T16:25:48.356Z,13.67
2017-12-22T16:28:16.668Z,18.57
2017-12-22T16:30:44.972Z,17.17
2017-12-22T16:33:13.330Z,12.90
2017-12-22T16:35:42.334Z,14.80
2017-12-22T16:38:10.896Z,10.90
2017-12-22T16:40:39.265Z,9.80
2017-12-22T16:43:07.632Z,10.40
2017-12-22T16:45:35.952Z,8.30
2017-12-22T16:48:05.279Z,14.23
2017-12-22T16:50:34.109Z,10.10
2017-12-22T16:53:03.001Z,11.93
2017-12-22T16:58:31.828Z,13.93
2017-12-22T17:01:01.056Z,10.53
2017-12-22T17:03:30.040Z,13.70
2017-12-22T17:05:59.134Z,10.33
2017-12-22T17:08:27.768Z,7.30
2017-12-22T17:10:56.100Z,6.90
2017-12-22T17:13:25.596Z,7.33
2017-12-22T17:15:53.980Z,5.10
2017-12-22T17:18:27.435Z,6.63
2017-12-22T17:20:56.076Z,12.67
2017-12-22T17:23:24.439Z,12.77
2017-12-22T17:25:53.557Z,12.00
2017-12-22T17:28:22.085Z,15.40
2017-12-22T17:30:50.392Z,12.07
2017-12-22T17:33:18.697Z,13.43
2017-12-22T17:38:47.480Z,6.17
2017-12-22T17:41:15.835Z,6.80
2017-12-22T17:43:44.274Z,7.80
2017-12-22T17:46:13.377Z,7.03
2017-12-22T17:48:42.444Z,5.43
2017-12-22T17:51:11.631Z,7.77
2017-12-22T17:53:40.323Z,6.67
2017-12-22T17:56:08.739Z,7.63
2017-12-22T17:58:38.031Z,6.60
2017-12-22T18:01:07.040Z,8.47
2017-12-22T18:03:35.360Z,7.00
2017-12-22T18:06:04.524Z,6.10
2017-12-22T18:08:33.244Z,7.33
2017-12-22T18:11:02.028Z,10.70
2017-12-22T18:13:30.327Z,9.33
2017-12-22T18:15:58.824Z,20.10
2017-12-22T18:18:28.415Z,8.70
2017-12-22T18:20:57.041Z,11.27
2017-12-22T18:23:25.688Z,7.70
2017-12-22T18:25:54.084Z,9.83
2017-12-22T18:28:23.270Z,5.93
2017-12-22T18:30:54.152Z,29.73
2017-12-22T18:33:23.119Z,8.57
2017-12-22T18:35:51.720Z,9.90
2017-12-22T18:38:21.288Z,22.10
2017-12-22T18:40:49.705Z,21.63
2017-12-22T18:43:18.073Z,13.13
2017-12-22T18:45:46.385Z,13.80
2017-12-22T18:48:14.690Z,17.63
2017-12-22T18:50:43.649Z,24.60
2017-12-22T18:53:12.577Z,19.47
2017-12-22T18:55:41.570Z,18.37
2017-12-22T18:58:10.828Z,10.80
2017-12-22T19:00:39.934Z,19.23
2017-12-22T19:03:08.940Z,14.23
2017-12-22T19:05:37.383Z,17.13
2017-12-22T19:08:06.317Z,17.57
2017-12-22T19:10:34.785Z,15.83
2017-12-22T19:13:03.217Z,15.27
2017-12-22T19:15:31.577Z,8.27
2017-12-22T19:17:59.976Z,9.43
2017-12-22T19:20:28.331Z,13.63
2017-12-22T19:22:56.707Z,9.50
2017-12-22T19:25:25.356Z,19.10
2017-12-22T19:27:53.755Z,26.30
2017-12-22T19:30:22.013Z,13.83
2017-12-22T19:32:50.324Z,13.07
2017-12-22T19:35:18.636Z,32.07
2017-12-22T19:37:47.809Z,19.07
2017-12-22T19:40:16.159Z,24.57
2017-12-22T19:42:44.527Z,20.97
2017-12-22T19:45:12.936Z,16.30
2017-12-22T19:47:41.299Z,30.23
2017-12-22T19:50:09.664Z,21.57
2017-12-22T19:52:38.218Z,22.60
2017-12-22T19:55:07.309Z,14.63
2017-12-22T19:57:35.658Z,18.97
2017-12-22T20:00:04.012Z,9.03
2017-12-22T20:02:32.324Z,22.67
2017-12-22T20:05:01.428Z,16.30
2017-12-22T20:07:30.607Z,15.77
2017-12-22T20:09:59.015Z,19.43
2017-12-22T20:12:27.392Z,20.30
2017-12-22T20:14:55.800Z,22.63
2017-12-22T20:17:24.185Z,19.70
2017-12-22T20:19:52.543Z,18.60
2017-12-22T20:22:20.975Z,25.00
2017-12-22T20:24:49.340Z,17.27
2017-12-22T20:27:17.818Z,21.70
2017-12-22T20:29:46.184Z,24.37
2017-12-22T20:32:15.154Z,15.90
2017-12-22T20:34:43.629Z,15.87
2017-12-22T20:37:11.983Z,13.47
2017-12-22T20:39:42.740Z,16.27
2017-12-22T20:42:12.267Z,13.37
2017-12-22T20:44:40.987Z,18.67
2017-12-22T20:47:09.743Z,16.17
2017-12-22T20:49:38.177Z,19.77
2017-12-22T20:52:07.315Z,16.70
2017-12-22T20:54:36.050Z,16.70
2017-12-22T20:57:04.428Z,18.00
2017-12-22T20:59:33.259Z,13.80
2017-12-22T21:02:01.700Z,16.40
2017-12-22T21:04:30.050Z,13.80
2017-12-22T21:06:59.124Z,18.57
2017-12-22T21:09:27.531Z,17.53
2017-12-22T21:11:56.335Z,19.73
2017-12-22T21:14:25.063Z,33.17
2017-12-22T21:16:55.516Z,23.47
2017-12-22T21:19:25.299Z,27.80
2017-12-22T21:21:54.356Z,23.17
2017-12-22T21:24:23.328Z,34.57
2017-12-22T21:26:51.824Z,25.77
2017-12-22T21:29:20.295Z,29.23
2017-12-22T21:31:48.660Z,26.70
2017-12-22T21:34:17.051Z,23.77
2017-12-22T21:36:46.653Z,25.63
2017-12-22T21:39:15.037Z,23.73
2017-12-22T21:41:44.014Z,21.90
2017-12-22T21:44:12.428Z,18.90
2017-12-22T21:46:40.783Z,17.07
2017-12-22T21:49:09.144Z,25.77
2017-12-22T21:51:37.597Z,14.17
2017-12-22T21:54:05.966Z,17.73
2017-12-22T21:56:34.608Z,17.07
2017-12-22T21:59:03.408Z,19.50
2017-12-22T22:01:32.075Z,16.43
2017-12-22T22:04:00.439Z,19.47
2017-12-22T22:06:28.880Z,19.27
2017-12-22T22:08:57.428Z,15.90
2017-12-22T22:11:26.424Z,15.30
2017-12-22T22:13:54.805Z,18.73
2017-12-22T22:16:23.568Z,13.43
2017-12-22T22:18:52.251Z,21.03
2017-12-22T22:21:20.617Z,22.87
2017-12-22T22:23:49.036Z,16.83
2017-12-22T22:26:17.403Z,19.40
2017-12-22T22:28:45.767Z,14.70
2017-12-22T22:31:14.151Z,17.37
2017-12-22T22:33:42.511Z,17.07
2017-12-22T22:36:10.920Z,18.03
2017-12-22T22:38:40.145Z,18.60
2017-12-22T22:41:09.213Z,20.10
2017-12-22T22:43:38.159Z,18.23
2017-12-22T22:46:07.009Z,21.80
2017-12-22T22:48:35.679Z,15.47
2017-12-22T22:51:04.496Z,19.00
2017-12-22T22:53:33.688Z,19.87
2017-12-22T22:56:02.722Z,16.50
2017-12-22T22:58:31.178Z,17.83
2017-12-22T23:00:59.545Z,21.20
2017-12-22T23:03:27.919Z,21.03
2017-12-22T23:05:56.340Z,19.67
2017-12-22T23:08:25.770Z,22.20
2017-12-22T23:10:55.287Z,20.50
2017-12-22T23:13:23.702Z,23.00
2017-12-22T23:15:53.567Z,23.77
2017-12-22T23:18:22.052Z,22.20
2017-12-22T23:20:50.464Z,20.80
2017-12-22T23:23:18.818Z,22.60
2017-12-22T23:25:47.188Z,20.60
2017-12-22T23:28:15.660Z,17.13
2017-12-22T23:30:44.161Z,18.27
2017-12-22T23:33:12.512Z,21.57
2017-12-22T23:35:41.803Z,22.20
2017-12-22T23:38:10.178Z,21.83
2017-12-22T23:40:38.593Z,20.60
2017-12-22T23:43:06.976Z,18.73
2017-12-22T23:45:35.353Z,19.67
2017-12-22T23:48:05.659Z,24.47
2017-12-22T23:50:34.710Z,22.27
2017-12-22T23:53:03.689Z,21.70
2017-12-22T23:55:32.869Z,28.03
2017-12-22T23:58:01.380Z,21.13
